sensor_id;sensor_type;location;lat;lon;timestamp;P1;durP1;ratioP1;P2;durP2;ratioP2
75626;SDS011;67372;49.404;11.034;2023-07-08T00:00:34;7.25;;;5.88;;
75626;SDS011;67372;49.404;11.034;2023-07-08T00:03:00;7.00;;;5.25;;
75626;SDS011;67372;49.404;11.034;2023-07-08T00:05:27;8.57;;;5.60;;
75626;SDS011;67372;49.404;11.034;2023-07-08T00:07:53;8.35;;;5.70;;
75626;SDS011;67372;49.404;11.034;2023-07-08T00:10:24;7.40;;;5.97;;
75626;SDS011;67372;49.404;11.034;2023-07-08T00:12:52;9.23;;;5.57;;
75626;SDS011;67372;49.404;11.034;2023-07-08T00:15:21;9.57;;;6.25;;
75626;SDS011;67372;49.404;11.034;2023-07-08T00:17:50;7.20;;;5.50;;
75626;SDS011;67372;49.404;11.034;2023-07-08T00:20:17;8.85;;;5.80;;
75626;SDS011;67372;49.404;11.034;2023-07-08T00:22:47;7.97;;;5.65;;
75626;SDS011;67372;49.404;11.034;2023-07-08T00:25:14;7.85;;;5.43;;
75626;SDS011;67372;49.404;11.034;2023-07-08T00:27:40;7.72;;;5.50;;
75626;SDS011;67372;49.404;11.034;2023-07-08T00:30:13;9.60;;;6.00;;
75626;SDS011;67372;49.404;11.034;2023-07-08T00:32:45;7.35;;;5.38;;
75626;SDS011;67372;49.404;11.034;2023-07-08T00:35:12;9.45;;;5.88;;
75626;SDS011;67372;49.404;11.034;2023-07-08T00:37:38;11.88;;;6.68;;
75626;SDS011;67372;49.404;11.034;2023-07-08T00:40:12;10.10;;;6.50;;
75626;SDS011;67372;49.404;11.034;2023-07-08T00:42:40;8.23;;;6.18;;
75626;SDS011;67372;49.404;11.034;2023-07-08T00:45:14;9.80;;;6.15;;
75626;SDS011;67372;49.404;11.034;2023-07-08T00:47:46;7.55;;;5.82;;
75626;SDS011;67372;49.404;11.034;2023-07-08T00:52:39;9.02;;;6.13;;
75626;SDS011;67372;49.404;11.034;2023-07-08T00:55:07;7.55;;;5.47;;
75626;SDS011;67372;49.404;11.034;2023-07-08T00:57:36;7.50;;;5.68;;
75626;SDS011;67372;49.404;11.034;2023-07-08T01:00:08;9.52;;;6.43;;
75626;SDS011;67372;49.404;11.034;2023-07-08T01:02:38;9.45;;;6.65;;
75626;SDS011;67372;49.404;11.034;2023-07-08T01:05:09;10.27;;;6.25;;
75626;SDS011;67372;49.404;11.034;2023-07-08T01:07:38;10.43;;;6.60;;
75626;SDS011;67372;49.404;11.034;2023-07-08T01:10:08;8.35;;;6.15;;
75626;SDS011;67372;49.404;11.034;2023-07-08T01:12:43;7.55;;;5.75;;
75626;SDS011;67372;49.404;11.034;2023-07-08T01:15:14;8.73;;;5.80;;
75626;SDS011;67372;49.404;11.034;2023-07-08T01:20:11;8.75;;;5.55;;
75626;SDS011;67372;49.404;11.034;2023-07-08T01:22:38;11.77;;;6.18;;
75626;SDS011;67372;49.404;11.034;2023-07-08T01:25:06;8.05;;;6.22;;
75626;SDS011;67372;49.404;11.034;2023-07-08T01:27:37;8.35;;;6.60;;
75626;SDS011;67372;49.404;11.034;2023-07-08T01:30:06;9.50;;;6.32;;
75626;SDS011;67372;49.404;11.034;2023-07-08T01:32:34;9.10;;;5.93;;
75626;SDS011;67372;49.404;11.034;2023-07-08T01:35:03;8.98;;;6.00;;
75626;SDS011;67372;49.404;11.034;2023-07-08T01:37:37;8.40;;;5.72;;
75626;SDS011;67372;49.404;11.034;2023-07-08T01:40:15;9.18;;;5.95;;
75626;SDS011;67372;49.404;11.034;2023-07-08T01:42:42;11.32;;;6.47;;
75626;SDS011;67372;49.404;11.034;2023-07-08T01:45:12;7.38;;;5.97;;
75626;SDS011;67372;49.404;11.034;2023-07-08T01:47:41;8.93;;;6.70;;
75626;SDS011;67372;49.404;11.034;2023-07-08T01:50:11;9.45;;;6.82;;
75626;SDS011;67372;49.404;11.034;2023-07-08T01:52:38;9.90;;;6.40;;
75626;SDS011;67372;49.404;11.034;2023-07-08T01:55:05;10.13;;;6.53;;
75626;SDS011;67372;49.404;11.034;2023-07-08T01:57:32;9.65;;;6.72;;
75626;SDS011;67372;49.404;11.034;2023-07-08T01:59:58;10.35;;;7.05;;
75626;SDS011;67372;49.404;11.034;2023-07-08T02:02:25;10.95;;;7.05;;
75626;SDS011;67372;49.404;11.034;2023-07-08T02:04:51;9.82;;;6.30;;
75626;SDS011;67372;49.404;11.034;2023-07-08T02:07:18;10.20;;;6.88;;
75626;SDS011;67372;49.404;11.034;2023-07-08T02:09:44;9.32;;;6.90;;
75626;SDS011;67372;49.404;11.034;2023-07-08T02:12:11;9.25;;;6.40;;
75626;SDS011;67372;49.404;11.034;2023-07-08T02:14:37;10.27;;;6.65;;
75626;SDS011;67372;49.404;11.034;2023-07-08T02:17:04;8.45;;;6.28;;
75626;SDS011;67372;49.404;11.034;2023-07-08T02:19:30;9.55;;;6.90;;
75626;SDS011;67372;49.404;11.034;2023-07-08T02:21:56;11.00;;;6.47;;
75626;SDS011;67372;49.404;11.034;2023-07-08T02:24:23;9.90;;;6.63;;
75626;SDS011;67372;49.404;11.034;2023-07-08T02:26:49;10.15;;;7.20;;
75626;SDS011;67372;49.404;11.034;2023-07-08T02:29:16;11.23;;;7.80;;
75626;SDS011;67372;49.404;11.034;2023-07-08T02:31:42;11.80;;;7.15;;
75626;SDS011;67372;49.404;11.034;2023-07-08T02:34:08;10.07;;;7.40;;
75626;SDS011;67372;49.404;11.034;2023-07-08T02:36:35;9.85;;;6.55;;
75626;SDS011;67372;49.404;11.034;2023-07-08T02:39:01;12.63;;;7.55;;
75626;SDS011;67372;49.404;11.034;2023-07-08T02:41:28;8.43;;;7.20;;
75626;SDS011;67372;49.404;11.034;2023-07-08T02:43:54;8.48;;;6.50;;
75626;SDS011;67372;49.404;11.034;2023-07-08T02:46:20;10.32;;;7.57;;
75626;SDS011;67372;49.404;11.034;2023-07-08T02:48:47;9.23;;;6.60;;
75626;SDS011;67372;49.404;11.034;2023-07-08T02:51:14;9.65;;;7.00;;
75626;SDS011;67372;49.404;11.034;2023-07-08T02:53:40;10.05;;;6.78;;
75626;SDS011;67372;49.404;11.034;2023-07-08T02:56:06;9.05;;;6.65;;
75626;SDS011;67372;49.404;11.034;2023-07-08T02:58:33;11.65;;;7.00;;
75626;SDS011;67372;49.404;11.034;2023-07-08T03:00:59;10.00;;;6.80;;
75626;SDS011;67372;49.404;11.034;2023-07-08T03:03:26;10.73;;;7.35;;
75626;SDS011;67372;49.404;11.034;2023-07-08T03:08:24;10.77;;;7.13;;
75626;SDS011;67372;49.404;11.034;2023-07-08T03:10:55;10.02;;;7.07;;
75626;SDS011;67372;49.404;11.034;2023-07-08T03:13:24;8.85;;;6.80;;
75626;SDS011;67372;49.404;11.034;2023-07-08T03:15:51;10.55;;;7.28;;
75626;SDS011;67372;49.404;11.034;2023-07-08T03:18:18;9.45;;;6.55;;
75626;SDS011;67372;49.404;11.034;2023-07-08T03:20:44;9.15;;;6.85;;
75626;SDS011;67372;49.404;11.034;2023-07-08T03:23:11;11.02;;;7.53;;
75626;SDS011;67372;49.404;11.034;2023-07-08T03:25:38;12.20;;;7.20;;
75626;SDS011;67372;49.404;11.034;2023-07-08T03:28:05;9.43;;;6.95;;
75626;SDS011;67372;49.404;11.034;2023-07-08T03:30:32;10.60;;;6.78;;
75626;SDS011;67372;49.404;11.034;2023-07-08T03:33:00;9.40;;;6.35;;
75626;SDS011;67372;49.404;11.034;2023-07-08T03:35:26;10.30;;;6.05;;
75626;SDS011;67372;49.404;11.034;2023-07-08T03:37:53;9.25;;;6.63;;
75626;SDS011;67372;49.404;11.034;2023-07-08T03:40:19;11.52;;;6.40;;
75626;SDS011;67372;49.404;11.034;2023-07-08T03:42:45;10.70;;;7.18;;
75626;SDS011;67372;49.404;11.034;2023-07-08T03:45:12;10.93;;;7.68;;
75626;SDS011;67372;49.404;11.034;2023-07-08T03:47:38;8.57;;;6.45;;
75626;SDS011;67372;49.404;11.034;2023-07-08T03:50:05;9.52;;;7.50;;
75626;SDS011;67372;49.404;11.034;2023-07-08T03:52:32;10.75;;;7.13;;
75626;SDS011;67372;49.404;11.034;2023-07-08T03:54:58;9.85;;;6.95;;
75626;SDS011;67372;49.404;11.034;2023-07-08T03:57:25;10.43;;;6.30;;
75626;SDS011;67372;49.404;11.034;2023-07-08T03:59:51;9.93;;;6.97;;
75626;SDS011;67372;49.404;11.034;2023-07-08T04:02:18;9.85;;;6.53;;
75626;SDS011;67372;49.404;11.034;2023-07-08T04:04:44;10.43;;;6.63;;
75626;SDS011;67372;49.404;11.034;2023-07-08T04:07:10;8.98;;;6.40;;
75626;SDS011;67372;49.404;11.034;2023-07-08T04:09:37;10.80;;;7.03;;
75626;SDS011;67372;49.404;11.034;2023-07-08T04:12:03;8.82;;;6.30;;
75626;SDS011;67372;49.404;11.034;2023-07-08T04:14:30;8.35;;;6.43;;
75626;SDS011;67372;49.404;11.034;2023-07-08T04:16:56;9.00;;;6.20;;
75626;SDS011;67372;49.404;11.034;2023-07-08T04:19:24;10.25;;;6.95;;
75626;SDS011;67372;49.404;11.034;2023-07-08T04:21:52;10.55;;;6.50;;
75626;SDS011;67372;49.404;11.034;2023-07-08T04:24:19;9.93;;;6.60;;
75626;SDS011;67372;49.404;11.034;2023-07-08T04:26:46;9.27;;;6.63;;
75626;SDS011;67372;49.404;11.034;2023-07-08T04:29:18;8.55;;;6.38;;
75626;SDS011;67372;49.404;11.034;2023-07-08T04:34:14;10.32;;;8.00;;
75626;SDS011;67372;49.404;11.034;2023-07-08T04:36:41;9.63;;;7.40;;
75626;SDS011;67372;49.404;11.034;2023-07-08T04:39:08;9.02;;;7.22;;
75626;SDS011;67372;49.404;11.034;2023-07-08T04:41:38;9.88;;;7.57;;
75626;SDS011;67372;49.404;11.034;2023-07-08T04:44:08;9.25;;;7.22;;
75626;SDS011;67372;49.404;11.034;2023-07-08T04:46:46;8.15;;;6.85;;
75626;SDS011;67372;49.404;11.034;2023-07-08T04:49:17;9.55;;;7.50;;
75626;SDS011;67372;49.404;11.034;2023-07-08T04:51:43;8.38;;;7.07;;
75626;SDS011;67372;49.404;11.034;2023-07-08T04:54:10;8.20;;;6.78;;
75626;SDS011;67372;49.404;11.034;2023-07-08T04:59:05;10.73;;;7.25;;
75626;SDS011;67372;49.404;11.034;2023-07-08T05:01:33;9.85;;;7.10;;
75626;SDS011;67372;49.404;11.034;2023-07-08T05:04:00;7.93;;;6.35;;
75626;SDS011;67372;49.404;11.034;2023-07-08T05:06:26;8.25;;;6.82;;
75626;SDS011;67372;49.404;11.034;2023-07-08T05:08:53;8.30;;;6.65;;
75626;SDS011;67372;49.404;11.034;2023-07-08T05:11:20;8.85;;;6.43;;
75626;SDS011;67372;49.404;11.034;2023-07-08T05:13:47;8.60;;;6.50;;
75626;SDS011;67372;49.404;11.034;2023-07-08T05:16:13;9.00;;;6.85;;
75626;SDS011;67372;49.404;11.034;2023-07-08T05:18:39;8.35;;;6.88;;
75626;SDS011;67372;49.404;11.034;2023-07-08T05:21:06;8.32;;;6.68;;
75626;SDS011;67372;49.404;11.034;2023-07-08T05:23:32;10.25;;;6.78;;
75626;SDS011;67372;49.404;11.034;2023-07-08T05:26:00;9.02;;;6.65;;
75626;SDS011;67372;49.404;11.034;2023-07-08T05:28:27;8.70;;;6.38;;
75626;SDS011;67372;49.404;11.034;2023-07-08T05:30:54;9.63;;;6.90;;
75626;SDS011;67372;49.404;11.034;2023-07-08T05:33:21;9.15;;;7.18;;
75626;SDS011;67372;49.404;11.034;2023-07-08T05:35:51;8.02;;;6.38;;
75626;SDS011;67372;49.404;11.034;2023-07-08T05:38:18;9.23;;;6.53;;
75626;SDS011;67372;49.404;11.034;2023-07-08T05:40:49;7.65;;;5.85;;
75626;SDS011;67372;49.404;11.034;2023-07-08T05:43:22;8.40;;;6.25;;
75626;SDS011;67372;49.404;11.034;2023-07-08T05:45:49;7.88;;;6.53;;
75626;SDS011;67372;49.404;11.034;2023-07-08T05:48:36;8.93;;;6.40;;
75626;SDS011;67372;49.404;11.034;2023-07-08T05:51:02;12.27;;;6.88;;
75626;SDS011;67372;49.404;11.034;2023-07-08T05:53:29;9.65;;;6.03;;
75626;SDS011;67372;49.404;11.034;2023-07-08T05:55:55;7.15;;;5.70;;
75626;SDS011;67372;49.404;11.034;2023-07-08T05:58:22;8.15;;;6.00;;
75626;SDS011;67372;49.404;11.034;2023-07-08T06:00:56;9.38;;;6.20;;
75626;SDS011;67372;49.404;11.034;2023-07-08T06:03:24;7.55;;;5.00;;
75626;SDS011;67372;49.404;11.034;2023-07-08T06:08:17;6.38;;;5.03;;
75626;SDS011;67372;49.404;11.034;2023-07-08T06:10:44;7.53;;;5.40;;
75626;SDS011;67372;49.404;11.034;2023-07-08T06:13:11;8.00;;;5.93;;
75626;SDS011;67372;49.404;11.034;2023-07-08T06:15:38;8.00;;;6.15;;
75626;SDS011;67372;49.404;11.034;2023-07-08T06:18:06;8.73;;;5.90;;
75626;SDS011;67372;49.404;11.034;2023-07-08T06:20:32;8.57;;;6.70;;
75626;SDS011;67372;49.404;11.034;2023-07-08T06:22:59;9.68;;;6.13;;
75626;SDS011;67372;49.404;11.034;2023-07-08T06:25:27;8.30;;;6.07;;
75626;SDS011;67372;49.404;11.034;2023-07-08T06:27:53;9.13;;;6.30;;
75626;SDS011;67372;49.404;11.034;2023-07-08T06:30:20;8.32;;;5.93;;
75626;SDS011;67372;49.404;11.034;2023-07-08T06:32:46;8.80;;;5.97;;
75626;SDS011;67372;49.404;11.034;2023-07-08T06:35:13;8.15;;;6.03;;
75626;SDS011;67372;49.404;11.034;2023-07-08T06:37:39;9.30;;;5.35;;
75626;SDS011;67372;49.404;11.034;2023-07-08T06:40:06;8.40;;;6.60;;
75626;SDS011;67372;49.404;11.034;2023-07-08T06:42:33;8.40;;;5.85;;
75626;SDS011;67372;49.404;11.034;2023-07-08T06:45:00;6.90;;;5.00;;
75626;SDS011;67372;49.404;11.034;2023-07-08T06:47:26;6.88;;;5.50;;
75626;SDS011;67372;49.404;11.034;2023-07-08T06:49:53;6.70;;;4.60;;
75626;SDS011;67372;49.404;11.034;2023-07-08T06:52:20;7.63;;;4.72;;
75626;SDS011;67372;49.404;11.034;2023-07-08T06:54:46;6.32;;;4.53;;
75626;SDS011;67372;49.404;11.034;2023-07-08T06:57:13;6.15;;;4.60;;
75626;SDS011;67372;49.404;11.034;2023-07-08T06:59:39;7.72;;;4.88;;
75626;SDS011;67372;49.404;11.034;2023-07-08T07:02:06;6.88;;;4.10;;
75626;SDS011;67372;49.404;11.034;2023-07-08T07:04:32;6.85;;;4.55;;
75626;SDS011;67372;49.404;11.034;2023-07-08T07:06:58;8.43;;;5.20;;
75626;SDS011;67372;49.404;11.034;2023-07-08T07:09:25;7.05;;;4.63;;
75626;SDS011;67372;49.404;11.034;2023-07-08T07:11:51;5.93;;;4.35;;
75626;SDS011;67372;49.404;11.034;2023-07-08T07:14:18;7.57;;;5.13;;
75626;SDS011;67372;49.404;11.034;2023-07-08T07:16:47;7.25;;;4.60;;
75626;SDS011;67372;49.404;11.034;2023-07-08T07:19:33;5.88;;;4.10;;
75626;SDS011;67372;49.404;11.034;2023-07-08T07:21:59;6.20;;;4.47;;
75626;SDS011;67372;49.404;11.034;2023-07-08T07:24:25;6.95;;;4.30;;
75626;SDS011;67372;49.404;11.034;2023-07-08T07:26:52;6.40;;;4.60;;
75626;SDS011;67372;49.404;11.034;2023-07-08T07:29:21;6.05;;;4.35;;
75626;SDS011;67372;49.404;11.034;2023-07-08T07:31:48;5.95;;;4.45;;
75626;SDS011;67372;49.404;11.034;2023-07-08T07:34:15;5.38;;;4.10;;
75626;SDS011;67372;49.404;11.034;2023-07-08T07:36:41;5.10;;;3.80;;
75626;SDS011;67372;49.404;11.034;2023-07-08T07:39:07;5.65;;;3.85;;
75626;SDS011;67372;49.404;11.034;2023-07-08T07:41:34;5.13;;;3.80;;
75626;SDS011;67372;49.404;11.034;2023-07-08T07:44:00;5.57;;;3.80;;
75626;SDS011;67372;49.404;11.034;2023-07-08T07:46:27;5.43;;;3.90;;
75626;SDS011;67372;49.404;11.034;2023-07-08T07:48:53;5.28;;;4.10;;
75626;SDS011;67372;49.404;11.034;2023-07-08T07:51:20;6.03;;;3.85;;
75626;SDS011;67372;49.404;11.034;2023-07-08T07:53:46;4.85;;;4.03;;
75626;SDS011;67372;49.404;11.034;2023-07-08T07:56:12;6.68;;;4.65;;
75626;SDS011;67372;49.404;11.034;2023-07-08T07:58:39;5.53;;;3.65;;
75626;SDS011;67372;49.404;11.034;2023-07-08T08:01:05;6.30;;;3.60;;
75626;SDS011;67372;49.404;11.034;2023-07-08T08:03:32;4.75;;;3.60;;
75626;SDS011;67372;49.404;11.034;2023-07-08T08:05:58;6.47;;;3.83;;
75626;SDS011;67372;49.404;11.034;2023-07-08T08:08:25;4.70;;;3.70;;
75626;SDS011;67372;49.404;11.034;2023-07-08T08:10:52;5.35;;;3.72;;
75626;SDS011;67372;49.404;11.034;2023-07-08T08:13:18;6.32;;;3.58;;
75626;SDS011;67372;49.404;11.034;2023-07-08T08:15:45;4.78;;;3.30;;
75626;SDS011;67372;49.404;11.034;2023-07-08T08:18:11;4.90;;;4.18;;
75626;SDS011;67372;49.404;11.034;2023-07-08T08:20:37;6.03;;;3.97;;
75626;SDS011;67372;49.404;11.034;2023-07-08T08:23:04;4.40;;;3.90;;
75626;SDS011;67372;49.404;11.034;2023-07-08T08:25:30;4.70;;;3.72;;
75626;SDS011;67372;49.404;11.034;2023-07-08T08:27:57;5.25;;;3.65;;
75626;SDS011;67372;49.404;11.034;2023-07-08T08:30:23;6.38;;;4.00;;
75626;SDS011;67372;49.404;11.034;2023-07-08T08:32:49;4.38;;;3.60;;
75626;SDS011;67372;49.404;11.034;2023-07-08T08:35:16;4.13;;;3.22;;
75626;SDS011;67372;49.404;11.034;2023-07-08T08:37:42;4.70;;;3.60;;
75626;SDS011;67372;49.404;11.034;2023-07-08T08:40:11;4.70;;;3.50;;
75626;SDS011;67372;49.404;11.034;2023-07-08T08:42:46;6.03;;;3.58;;
75626;SDS011;67372;49.404;11.034;2023-07-08T08:45:19;4.93;;;3.88;;
75626;SDS011;67372;49.404;11.034;2023-07-08T08:47:49;4.50;;;3.53;;
75626;SDS011;67372;49.404;11.034;2023-07-08T08:50:21;6.13;;;4.13;;
75626;SDS011;67372;49.404;11.034;2023-07-08T08:52:54;6.07;;;4.05;;
75626;SDS011;67372;49.404;11.034;2023-07-08T08:55:22;5.10;;;3.80;;
75626;SDS011;67372;49.404;11.034;2023-07-08T08:58:11;4.72;;;3.40;;
75626;SDS011;67372;49.404;11.034;2023-07-08T09:01:02;5.78;;;3.55;;
75626;SDS011;67372;49.404;11.034;2023-07-08T09:03:35;5.10;;;3.97;;
75626;SDS011;67372;49.404;11.034;2023-07-08T09:06:16;4.50;;;3.50;;
75626;SDS011;67372;49.404;11.034;2023-07-08T09:08:46;6.68;;;4.00;;
75626;SDS011;67372;49.404;11.034;2023-07-08T09:14:01;5.30;;;3.97;;
75626;SDS011;67372;49.404;11.034;2023-07-08T09:19:14;4.47;;;3.72;;
75626;SDS011;67372;49.404;11.034;2023-07-08T09:24:27;5.22;;;3.38;;
75626;SDS011;67372;49.404;11.034;2023-07-08T09:27:09;5.43;;;3.50;;
75626;SDS011;67372;49.404;11.034;2023-07-08T09:32:11;5.70;;;3.65;;
75626;SDS011;67372;49.404;11.034;2023-07-08T09:34:44;5.00;;;3.40;;
75626;SDS011;67372;49.404;11.034;2023-07-08T09:37:32;4.40;;;3.30;;
75626;SDS011;67372;49.404;11.034;2023-07-08T09:40:04;6.43;;;3.50;;
75626;SDS011;67372;49.404;11.034;2023-07-08T09:42:41;5.97;;;3.20;;
75626;SDS011;67372;49.404;11.034;2023-07-08T09:45:14;4.65;;;3.50;;
75626;SDS011;67372;49.404;11.034;2023-07-08T09:47:46;4.47;;;3.15;;
75626;SDS011;67372;49.404;11.034;2023-07-08T09:50:31;3.80;;;3.20;;
75626;SDS011;67372;49.404;11.034;2023-07-08T09:53:01;4.50;;;3.20;;
75626;SDS011;67372;49.404;11.034;2023-07-08T09:55:28;4.32;;;3.42;;
75626;SDS011;67372;49.404;11.034;2023-07-08T09:57:55;4.70;;;3.28;;
75626;SDS011;67372;49.404;11.034;2023-07-08T10:00:34;4.47;;;3.50;;
75626;SDS011;67372;49.404;11.034;2023-07-08T10:03:11;4.80;;;3.25;;
75626;SDS011;67372;49.404;11.034;2023-07-08T10:05:46;6.68;;;3.53;;
75626;SDS011;67372;49.404;11.034;2023-07-08T10:08:18;5.78;;;3.53;;
75626;SDS011;67372;49.404;11.034;2023-07-08T10:10:47;4.55;;;3.40;;
75626;SDS011;67372;49.404;11.034;2023-07-08T10:13:26;5.47;;;3.45;;
75626;SDS011;67372;49.404;11.034;2023-07-08T10:16:16;5.10;;;3.30;;
75626;SDS011;67372;49.404;11.034;2023-07-08T10:18:49;4.55;;;3.10;;
75626;SDS011;67372;49.404;11.034;2023-07-08T10:26:48;5.22;;;3.60;;
75626;SDS011;67372;49.404;11.034;2023-07-08T10:29:20;6.28;;;3.35;;
75626;SDS011;67372;49.404;11.034;2023-07-08T10:36:56;5.57;;;3.45;;
75626;SDS011;67372;49.404;11.034;2023-07-08T10:39:52;4.57;;;3.40;;
75626;SDS011;67372;49.404;11.034;2023-07-08T10:42:23;4.95;;;3.47;;
75626;SDS011;67372;49.404;11.034;2023-07-08T10:45:15;4.72;;;3.42;;
75626;SDS011;67372;49.404;11.034;2023-07-08T10:47:53;4.32;;;3.10;;
75626;SDS011;67372;49.404;11.034;2023-07-08T10:50:46;4.63;;;3.30;;
75626;SDS011;67372;49.404;11.034;2023-07-08T10:56:06;4.50;;;3.42;;
75626;SDS011;67372;49.404;11.034;2023-07-08T10:59:02;4.50;;;3.35;;
75626;SDS011;67372;49.404;11.034;2023-07-08T11:10:12;5.50;;;3.15;;
75626;SDS011;67372;49.404;11.034;2023-07-08T11:12:46;5.72;;;3.30;;
75626;SDS011;67372;49.404;11.034;2023-07-08T11:17:59;4.78;;;2.97;;
75626;SDS011;67372;49.404;11.034;2023-07-08T11:25:58;4.85;;;3.58;;
75626;SDS011;67372;49.404;11.034;2023-07-08T11:28:45;4.95;;;3.58;;
75626;SDS011;67372;49.404;11.034;2023-07-08T11:31:12;5.53;;;3.80;;
75626;SDS011;67372;49.404;11.034;2023-07-08T11:33:40;3.58;;;3.13;;
75626;SDS011;67372;49.404;11.034;2023-07-08T11:36:08;4.82;;;3.70;;
75626;SDS011;67372;49.404;11.034;2023-07-08T11:38:36;4.35;;;3.28;;
75626;SDS011;67372;49.404;11.034;2023-07-08T11:41:03;5.15;;;3.53;;
75626;SDS011;67372;49.404;11.034;2023-07-08T11:43:42;5.50;;;3.58;;
75626;SDS011;67372;49.404;11.034;2023-07-08T11:46:23;5.40;;;3.67;;
75626;SDS011;67372;49.404;11.034;2023-07-08T11:51:22;4.78;;;3.40;;
75626;SDS011;67372;49.404;11.034;2023-07-08T11:53:58;5.15;;;3.42;;
75626;SDS011;67372;49.404;11.034;2023-07-08T11:59:23;4.53;;;3.70;;
75626;SDS011;67372;49.404;11.034;2023-07-08T12:02:02;4.90;;;3.63;;
75626;SDS011;67372;49.404;11.034;2023-07-08T12:07:03;4.80;;;3.50;;
75626;SDS011;67372;49.404;11.034;2023-07-08T12:09:44;5.30;;;3.33;;
75626;SDS011;67372;49.404;11.034;2023-07-08T12:12:17;4.65;;;3.55;;
75626;SDS011;67372;49.404;11.034;2023-07-08T12:14:47;4.00;;;3.40;;
75626;SDS011;67372;49.404;11.034;2023-07-08T12:17:14;4.55;;;3.53;;
75626;SDS011;67372;49.404;11.034;2023-07-08T12:19:42;5.20;;;3.40;;
75626;SDS011;67372;49.404;11.034;2023-07-08T12:22:10;5.10;;;3.92;;
75626;SDS011;67372;49.404;11.034;2023-07-08T12:24:37;5.60;;;4.00;;
75626;SDS011;67372;49.404;11.034;2023-07-08T12:27:08;5.35;;;3.58;;
75626;SDS011;67372;49.404;11.034;2023-07-08T12:29:36;4.32;;;3.50;;
75626;SDS011;67372;49.404;11.034;2023-07-08T12:32:02;4.93;;;3.58;;
75626;SDS011;67372;49.404;11.034;2023-07-08T12:34:30;6.15;;;3.83;;
75626;SDS011;67372;49.404;11.034;2023-07-08T12:36:57;5.65;;;3.70;;
75626;SDS011;67372;49.404;11.034;2023-07-08T12:39:24;4.35;;;3.55;;
75626;SDS011;67372;49.404;11.034;2023-07-08T12:41:50;4.97;;;3.78;;
75626;SDS011;67372;49.404;11.034;2023-07-08T12:44:18;6.28;;;3.72;;
75626;SDS011;67372;49.404;11.034;2023-07-08T12:46:50;4.15;;;3.55;;
75626;SDS011;67372;49.404;11.034;2023-07-08T12:49:19;5.63;;;3.90;;
75626;SDS011;67372;49.404;11.034;2023-07-08T12:51:46;4.55;;;3.58;;
75626;SDS011;67372;49.404;11.034;2023-07-08T12:54:13;5.55;;;3.20;;
75626;SDS011;67372;49.404;11.034;2023-07-08T12:56:42;7.47;;;4.13;;
75626;SDS011;67372;49.404;11.034;2023-07-08T12:59:12;5.55;;;3.90;;
75626;SDS011;67372;49.404;11.034;2023-07-08T13:01:45;5.78;;;3.75;;
75626;SDS011;67372;49.404;11.034;2023-07-08T13:04:12;5.63;;;3.63;;
75626;SDS011;67372;49.404;11.034;2023-07-08T13:06:39;4.22;;;3.63;;
75626;SDS011;67372;49.404;11.034;2023-07-08T13:09:17;4.90;;;3.83;;
75626;SDS011;67372;49.404;11.034;2023-07-08T13:11:52;4.25;;;3.55;;
75626;SDS011;67372;49.404;11.034;2023-07-08T13:14:21;8.20;;;4.07;;
75626;SDS011;67372;49.404;11.034;2023-07-08T13:16:48;5.43;;;3.95;;
75626;SDS011;67372;49.404;11.034;2023-07-08T13:21:41;5.85;;;3.75;;
75626;SDS011;67372;49.404;11.034;2023-07-08T13:26:37;4.53;;;3.38;;
75626;SDS011;67372;49.404;11.034;2023-07-08T13:29:06;4.88;;;4.07;;
75626;SDS011;67372;49.404;11.034;2023-07-08T13:31:39;4.97;;;3.90;;
75626;SDS011;67372;49.404;11.034;2023-07-08T13:34:07;4.45;;;3.50;;
75626;SDS011;67372;49.404;11.034;2023-07-08T13:36:37;5.40;;;3.60;;
75626;SDS011;67372;49.404;11.034;2023-07-08T13:39:06;4.65;;;3.80;;
75626;SDS011;67372;49.404;11.034;2023-07-08T13:41:35;4.57;;;3.35;;
75626;SDS011;67372;49.404;11.034;2023-07-08T13:44:05;7.40;;;3.70;;
75626;SDS011;67372;49.404;11.034;2023-07-08T13:46:34;4.47;;;3.50;;
75626;SDS011;67372;49.404;11.034;2023-07-08T13:49:10;4.78;;;3.60;;
75626;SDS011;67372;49.404;11.034;2023-07-08T13:51:39;4.15;;;3.25;;
75626;SDS011;67372;49.404;11.034;2023-07-08T13:54:13;5.88;;;3.65;;
75626;SDS011;67372;49.404;11.034;2023-07-08T13:56:46;6.32;;;3.67;;
75626;SDS011;67372;49.404;11.034;2023-07-08T13:59:18;4.40;;;3.42;;
75626;SDS011;67372;49.404;11.034;2023-07-08T14:01:48;6.65;;;3.40;;
75626;SDS011;67372;49.404;11.034;2023-07-08T14:04:18;5.75;;;3.70;;
75626;SDS011;67372;49.404;11.034;2023-07-08T14:06:46;8.50;;;4.10;;
75626;SDS011;67372;49.404;11.034;2023-07-08T14:09:17;7.70;;;4.10;;
75626;SDS011;67372;49.404;11.034;2023-07-08T14:11:46;5.30;;;4.03;;
75626;SDS011;67372;49.404;11.034;2023-07-08T14:14:14;4.85;;;3.88;;
75626;SDS011;67372;49.404;11.034;2023-07-08T14:16:45;5.72;;;3.90;;
75626;SDS011;67372;49.404;11.034;2023-07-08T14:19:21;4.72;;;3.88;;
75626;SDS011;67372;49.404;11.034;2023-07-08T14:21:51;6.75;;;3.90;;
75626;SDS011;67372;49.404;11.034;2023-07-08T14:24:21;5.38;;;3.97;;
75626;SDS011;67372;49.404;11.034;2023-07-08T14:29:14;5.65;;;4.10;;
75626;SDS011;67372;49.404;11.034;2023-07-08T14:31:41;5.22;;;4.28;;
75626;SDS011;67372;49.404;11.034;2023-07-08T14:34:09;5.22;;;3.80;;
75626;SDS011;67372;49.404;11.034;2023-07-08T14:36:38;4.93;;;3.92;;
75626;SDS011;67372;49.404;11.034;2023-07-08T14:39:09;8.43;;;4.25;;
75626;SDS011;67372;49.404;11.034;2023-07-08T14:41:38;6.35;;;4.50;;
75626;SDS011;67372;49.404;11.034;2023-07-08T14:44:24;6.82;;;4.55;;
75626;SDS011;67372;49.404;11.034;2023-07-08T14:46:53;5.63;;;3.75;;
75626;SDS011;67372;49.404;11.034;2023-07-08T14:49:20;5.35;;;4.40;;
75626;SDS011;67372;49.404;11.034;2023-07-08T14:51:48;8.07;;;3.88;;
75626;SDS011;67372;49.404;11.034;2023-07-08T14:54:15;5.50;;;3.90;;
75626;SDS011;67372;49.404;11.034;2023-07-08T14:56:41;6.05;;;4.25;;
75626;SDS011;67372;49.404;11.034;2023-07-08T14:59:15;7.20;;;3.95;;
75626;SDS011;67372;49.404;11.034;2023-07-08T15:01:44;4.88;;;4.07;;
75626;SDS011;67372;49.404;11.034;2023-07-08T15:04:12;6.03;;;4.13;;
75626;SDS011;67372;49.404;11.034;2023-07-08T15:06:43;4.95;;;4.22;;
75626;SDS011;67372;49.404;11.034;2023-07-08T15:09:10;8.10;;;4.65;;
75626;SDS011;67372;49.404;11.034;2023-07-08T15:11:37;6.63;;;4.63;;
75626;SDS011;67372;49.404;11.034;2023-07-08T15:14:06;6.22;;;4.10;;
75626;SDS011;67372;49.404;11.034;2023-07-08T15:16:45;6.43;;;4.35;;
75626;SDS011;67372;49.404;11.034;2023-07-08T15:21:38;6.25;;;4.28;;
75626;SDS011;67372;49.404;11.034;2023-07-08T15:24:09;6.88;;;4.35;;
75626;SDS011;67372;49.404;11.034;2023-07-08T15:26:44;7.50;;;4.25;;
75626;SDS011;67372;49.404;11.034;2023-07-08T15:29:17;5.32;;;4.05;;
75626;SDS011;67372;49.404;11.034;2023-07-08T15:31:46;7.88;;;4.43;;
75626;SDS011;67372;49.404;11.034;2023-07-08T15:34:13;4.55;;;4.15;;
75626;SDS011;67372;49.404;11.034;2023-07-08T15:36:41;5.95;;;4.53;;
75626;SDS011;67372;49.404;11.034;2023-07-08T15:41:33;4.53;;;3.70;;
75626;SDS011;67372;49.404;11.034;2023-07-08T15:44:01;6.47;;;4.22;;
75626;SDS011;67372;49.404;11.034;2023-07-08T15:46:31;4.95;;;3.90;;
75626;SDS011;67372;49.404;11.034;2023-07-08T15:49:00;5.88;;;3.90;;
75626;SDS011;67372;49.404;11.034;2023-07-08T15:51:27;5.75;;;3.83;;
75626;SDS011;67372;49.404;11.034;2023-07-08T15:53:53;7.22;;;4.63;;
75626;SDS011;67372;49.404;11.034;2023-07-08T15:56:20;6.30;;;4.20;;
75626;SDS011;67372;49.404;11.034;2023-07-08T15:58:46;6.72;;;4.53;;
75626;SDS011;67372;49.404;11.034;2023-07-08T16:01:16;6.00;;;4.20;;